Terminal Aerodrome Forecast
Issued by NWS

Home | Current Version | Previous Version | Text Only | Print | Product List | Glossary On
Versions: 1 2 3 4 5 6 7 8 9 10 11 12
000
FTUS46 KHNX 050540
TAFFAT
TAF
KFAT 050540Z 0506/0606 32010KT P6SM FEW130 BKN150
     FM051200 15005KT P6SM SCT060 BKN100
     FM051800 27005KT P6SM SCT030 BKN060 PROB30 0518/0524 3SM TSRA
      BKN030CB
     FM060000 29010KT P6SM -SHRA SCT030 BKN050 PROB30 0600/0606 3SM
      TSRA BKN030CB=

USA.gov is the U.S. government's official web portal to all federal, state and local government web resources and services.